sensor_id;sensor_type;location;lat;lon;timestamp;P1;durP1;ratioP1;P2;durP2;ratioP2
21215;SDS011;10765;50.954;5.322;2022-12-07T00:01:22;22.90;;;18.67;;
21215;SDS011;10765;50.954;5.322;2022-12-07T00:03:52;20.63;;;18.43;;
21215;SDS011;10765;50.954;5.322;2022-12-07T00:06:22;22.23;;;18.47;;
21215;SDS011;10765;50.954;5.322;2022-12-07T00:08:49;21.40;;;19.07;;
21215;SDS011;10765;50.954;5.322;2022-12-07T00:11:16;22.63;;;19.20;;
21215;SDS011;10765;50.954;5.322;2022-12-07T00:13:44;24.10;;;20.23;;
21215;SDS011;10765;50.954;5.322;2022-12-07T00:16:12;25.03;;;21.37;;
21215;SDS011;10765;50.954;5.322;2022-12-07T00:18:41;25.03;;;20.90;;
21215;SDS011;10765;50.954;5.322;2022-12-07T00:21:10;20.87;;;18.67;;
21215;SDS011;10765;50.954;5.322;2022-12-07T00:23:40;20.97;;;18.77;;
21215;SDS011;10765;50.954;5.322;2022-12-07T00:26:09;26.03;;;21.53;;
21215;SDS011;10765;50.954;5.322;2022-12-07T00:28:37;22.60;;;20.20;;
21215;SDS011;10765;50.954;5.322;2022-12-07T00:31:05;24.27;;;21.03;;
21215;SDS011;10765;50.954;5.322;2022-12-07T00:33:34;25.03;;;21.23;;
21215;SDS011;10765;50.954;5.322;2022-12-07T00:36:02;23.57;;;20.90;;
21215;SDS011;10765;50.954;5.322;2022-12-07T00:38:32;26.23;;;22.30;;
21215;SDS011;10765;50.954;5.322;2022-12-07T00:41:01;25.10;;;22.40;;
21215;SDS011;10765;50.954;5.322;2022-12-07T00:43:30;24.50;;;21.90;;
21215;SDS011;10765;50.954;5.322;2022-12-07T00:45:57;25.53;;;22.57;;
21215;SDS011;10765;50.954;5.322;2022-12-07T00:48:24;25.43;;;22.73;;
21215;SDS011;10765;50.954;5.322;2022-12-07T00:50:51;26.67;;;22.23;;
21215;SDS011;10765;50.954;5.322;2022-12-07T00:53:18;27.23;;;22.63;;
21215;SDS011;10765;50.954;5.322;2022-12-07T00:55:47;23.40;;;21.00;;
21215;SDS011;10765;50.954;5.322;2022-12-07T00:58:14;24.50;;;21.83;;
21215;SDS011;10765;50.954;5.322;2022-12-07T01:00:42;29.23;;;22.50;;
21215;SDS011;10765;50.954;5.322;2022-12-07T01:03:09;22.50;;;20.20;;
21215;SDS011;10765;50.954;5.322;2022-12-07T01:05:38;25.37;;;22.67;;
21215;SDS011;10765;50.954;5.322;2022-12-07T01:08:05;26.77;;;22.40;;
21215;SDS011;10765;50.954;5.322;2022-12-07T01:10:32;27.87;;;24.13;;
21215;SDS011;10765;50.954;5.322;2022-12-07T01:13:01;29.53;;;25.10;;
21215;SDS011;10765;50.954;5.322;2022-12-07T01:15:28;30.50;;;25.77;;
21215;SDS011;10765;50.954;5.322;2022-12-07T01:17:54;30.97;;;25.67;;
21215;SDS011;10765;50.954;5.322;2022-12-07T01:20:21;27.43;;;24.50;;
21215;SDS011;10765;50.954;5.322;2022-12-07T01:22:48;27.33;;;24.40;;
21215;SDS011;10765;50.954;5.322;2022-12-07T01:25:15;30.80;;;25.67;;
21215;SDS011;10765;50.954;5.322;2022-12-07T01:27:42;29.10;;;26.00;;
21215;SDS011;10765;50.954;5.322;2022-12-07T01:30:11;29.17;;;26.07;;
21215;SDS011;10765;50.954;5.322;2022-12-07T01:32:39;28.67;;;25.50;;
21215;SDS011;10765;50.954;5.322;2022-12-07T01:35:06;28.67;;;25.70;;
21215;SDS011;10765;50.954;5.322;2022-12-07T01:37:34;32.03;;;27.27;;
21215;SDS011;10765;50.954;5.322;2022-12-07T01:40:02;29.37;;;26.23;;
21215;SDS011;10765;50.954;5.322;2022-12-07T01:42:30;30.30;;;26.20;;
21215;SDS011;10765;50.954;5.322;2022-12-07T01:48:03;31.63;;;26.20;;
21215;SDS011;10765;50.954;5.322;2022-12-07T01:50:31;33.40;;;25.80;;
21215;SDS011;10765;50.954;5.322;2022-12-07T01:52:59;29.80;;;25.90;;
21215;SDS011;10765;50.954;5.322;2022-12-07T01:55:29;32.03;;;26.67;;
21215;SDS011;10765;50.954;5.322;2022-12-07T01:57:56;31.33;;;26.37;;
21215;SDS011;10765;50.954;5.322;2022-12-07T02:00:24;32.77;;;29.23;;
21215;SDS011;10765;50.954;5.322;2022-12-07T02:02:53;31.30;;;27.43;;
21215;SDS011;10765;50.954;5.322;2022-12-07T02:05:23;30.10;;;26.93;;
21215;SDS011;10765;50.954;5.322;2022-12-07T02:07:52;25.80;;;22.90;;
21215;SDS011;10765;50.954;5.322;2022-12-07T02:10:22;32.23;;;27.77;;
21215;SDS011;10765;50.954;5.322;2022-12-07T02:12:51;32.03;;;27.50;;
21215;SDS011;10765;50.954;5.322;2022-12-07T02:15:22;32.80;;;27.80;;
21215;SDS011;10765;50.954;5.322;2022-12-07T02:17:56;31.83;;;27.97;;
21215;SDS011;10765;50.954;5.322;2022-12-07T02:20:33;32.73;;;27.60;;
21215;SDS011;10765;50.954;5.322;2022-12-07T02:23:21;33.03;;;28.33;;
21215;SDS011;10765;50.954;5.322;2022-12-07T02:29:12;31.03;;;27.67;;
21215;SDS011;10765;50.954;5.322;2022-12-07T02:31:45;34.90;;;27.33;;
21215;SDS011;10765;50.954;5.322;2022-12-07T02:34:19;32.73;;;27.87;;
21215;SDS011;10765;50.954;5.322;2022-12-07T02:36:53;31.20;;;27.53;;
21215;SDS011;10765;50.954;5.322;2022-12-07T02:39:28;30.83;;;26.80;;
21215;SDS011;10765;50.954;5.322;2022-12-07T02:42:02;32.43;;;28.77;;
21215;SDS011;10765;50.954;5.322;2022-12-07T02:44:37;31.53;;;26.57;;
21215;SDS011;10765;50.954;5.322;2022-12-07T02:47:05;31.60;;;28.17;;
21215;SDS011;10765;50.954;5.322;2022-12-07T02:49:35;30.43;;;27.13;;
21215;SDS011;10765;50.954;5.322;2022-12-07T02:52:06;32.37;;;28.07;;
21215;SDS011;10765;50.954;5.322;2022-12-07T02:54:33;33.87;;;29.13;;
21215;SDS011;10765;50.954;5.322;2022-12-07T02:57:01;32.47;;;27.80;;
21215;SDS011;10765;50.954;5.322;2022-12-07T02:59:42;35.70;;;31.27;;
21215;SDS011;10765;50.954;5.322;2022-12-07T03:02:17;34.83;;;30.90;;
21215;SDS011;10765;50.954;5.322;2022-12-07T03:04:52;37.80;;;32.83;;
21215;SDS011;10765;50.954;5.322;2022-12-07T03:07:33;35.23;;;30.77;;
21215;SDS011;10765;50.954;5.322;2022-12-07T03:10:07;36.43;;;31.27;;
21215;SDS011;10765;50.954;5.322;2022-12-07T03:12:42;38.97;;;33.00;;
21215;SDS011;10765;50.954;5.322;2022-12-07T03:15:14;38.60;;;34.27;;
21215;SDS011;10765;50.954;5.322;2022-12-07T03:17:46;38.30;;;34.20;;
21215;SDS011;10765;50.954;5.322;2022-12-07T03:20:16;41.47;;;34.50;;
21215;SDS011;10765;50.954;5.322;2022-12-07T03:22:45;39.00;;;34.77;;
21215;SDS011;10765;50.954;5.322;2022-12-07T03:25:14;43.30;;;37.27;;
21215;SDS011;10765;50.954;5.322;2022-12-07T03:27:43;41.43;;;37.03;;
21215;SDS011;10765;50.954;5.322;2022-12-07T03:30:17;41.23;;;36.10;;
21215;SDS011;10765;50.954;5.322;2022-12-07T03:32:48;44.93;;;38.30;;
21215;SDS011;10765;50.954;5.322;2022-12-07T03:35:20;48.30;;;41.27;;
21215;SDS011;10765;50.954;5.322;2022-12-07T03:37:51;47.83;;;39.67;;
21215;SDS011;10765;50.954;5.322;2022-12-07T03:40:22;47.97;;;40.90;;
21215;SDS011;10765;50.954;5.322;2022-12-07T03:42:54;48.43;;;40.13;;
21215;SDS011;10765;50.954;5.322;2022-12-07T03:45:27;45.43;;;38.50;;
21215;SDS011;10765;50.954;5.322;2022-12-07T03:48:02;45.13;;;39.57;;
21215;SDS011;10765;50.954;5.322;2022-12-07T03:50:36;45.90;;;40.10;;
21215;SDS011;10765;50.954;5.322;2022-12-07T03:53:11;49.10;;;41.27;;
21215;SDS011;10765;50.954;5.322;2022-12-07T03:55:42;47.27;;;40.90;;
21215;SDS011;10765;50.954;5.322;2022-12-07T03:58:14;44.23;;;38.13;;
21215;SDS011;10765;50.954;5.322;2022-12-07T04:00:45;42.63;;;37.47;;
21215;SDS011;10765;50.954;5.322;2022-12-07T04:03:12;42.67;;;37.03;;
21215;SDS011;10765;50.954;5.322;2022-12-07T04:05:39;41.83;;;36.60;;
21215;SDS011;10765;50.954;5.322;2022-12-07T04:08:06;42.90;;;36.77;;
21215;SDS011;10765;50.954;5.322;2022-12-07T04:10:33;42.93;;;37.27;;
21215;SDS011;10765;50.954;5.322;2022-12-07T04:13:01;44.30;;;38.73;;
21215;SDS011;10765;50.954;5.322;2022-12-07T04:15:28;48.17;;;39.47;;
21215;SDS011;10765;50.954;5.322;2022-12-07T04:17:56;43.60;;;38.03;;
21215;SDS011;10765;50.954;5.322;2022-12-07T04:20:23;44.77;;;36.47;;
21215;SDS011;10765;50.954;5.322;2022-12-07T04:22:50;40.73;;;35.47;;
21215;SDS011;10765;50.954;5.322;2022-12-07T04:25:17;45.27;;;39.27;;
21215;SDS011;10765;50.954;5.322;2022-12-07T04:27:43;52.27;;;41.80;;
21215;SDS011;10765;50.954;5.322;2022-12-07T04:30:11;41.67;;;36.63;;
21215;SDS011;10765;50.954;5.322;2022-12-07T04:32:38;38.40;;;34.20;;
21215;SDS011;10765;50.954;5.322;2022-12-07T04:35:06;46.30;;;39.13;;
21215;SDS011;10765;50.954;5.322;2022-12-07T04:37:34;40.20;;;35.47;;
21215;SDS011;10765;50.954;5.322;2022-12-07T04:40:01;43.77;;;37.87;;
21215;SDS011;10765;50.954;5.322;2022-12-07T04:42:28;42.87;;;35.87;;
21215;SDS011;10765;50.954;5.322;2022-12-07T04:44:55;45.67;;;39.13;;
21215;SDS011;10765;50.954;5.322;2022-12-07T04:47:22;42.23;;;36.17;;
21215;SDS011;10765;50.954;5.322;2022-12-07T04:49:49;45.33;;;37.40;;
21215;SDS011;10765;50.954;5.322;2022-12-07T04:52:17;41.90;;;36.60;;
21215;SDS011;10765;50.954;5.322;2022-12-07T04:54:44;42.53;;;36.60;;
21215;SDS011;10765;50.954;5.322;2022-12-07T04:57:11;42.77;;;35.60;;
21215;SDS011;10765;50.954;5.322;2022-12-07T04:59:38;48.30;;;40.67;;
21215;SDS011;10765;50.954;5.322;2022-12-07T05:02:04;39.13;;;34.53;;
21215;SDS011;10765;50.954;5.322;2022-12-07T05:04:31;34.73;;;30.97;;
21215;SDS011;10765;50.954;5.322;2022-12-07T05:06:58;35.17;;;30.63;;
21215;SDS011;10765;50.954;5.322;2022-12-07T05:09:26;33.53;;;29.93;;
21215;SDS011;10765;50.954;5.322;2022-12-07T05:11:53;36.50;;;31.93;;
21215;SDS011;10765;50.954;5.322;2022-12-07T05:14:20;42.53;;;33.43;;
21215;SDS011;10765;50.954;5.322;2022-12-07T05:16:48;35.87;;;31.97;;
21215;SDS011;10765;50.954;5.322;2022-12-07T05:19:16;32.20;;;28.30;;
21215;SDS011;10765;50.954;5.322;2022-12-07T05:21:44;33.03;;;28.87;;
21215;SDS011;10765;50.954;5.322;2022-12-07T05:24:11;32.07;;;28.70;;
21215;SDS011;10765;50.954;5.322;2022-12-07T05:26:41;32.47;;;29.07;;
21215;SDS011;10765;50.954;5.322;2022-12-07T05:29:10;38.13;;;33.17;;
21215;SDS011;10765;50.954;5.322;2022-12-07T05:31:38;36.53;;;31.00;;
21215;SDS011;10765;50.954;5.322;2022-12-07T05:34:05;35.63;;;31.87;;
21215;SDS011;10765;50.954;5.322;2022-12-07T05:36:32;39.97;;;33.83;;
21215;SDS011;10765;50.954;5.322;2022-12-07T05:38:59;35.03;;;31.23;;
21215;SDS011;10765;50.954;5.322;2022-12-07T05:41:26;34.30;;;30.60;;
21215;SDS011;10765;50.954;5.322;2022-12-07T05:44:12;36.33;;;31.67;;
21215;SDS011;10765;50.954;5.322;2022-12-07T05:46:39;33.67;;;30.17;;
21215;SDS011;10765;50.954;5.322;2022-12-07T05:49:06;37.67;;;31.37;;
21215;SDS011;10765;50.954;5.322;2022-12-07T05:51:33;36.77;;;32.60;;
21215;SDS011;10765;50.954;5.322;2022-12-07T05:53:59;34.23;;;30.20;;
21215;SDS011;10765;50.954;5.322;2022-12-07T05:56:26;33.07;;;29.57;;
21215;SDS011;10765;50.954;5.322;2022-12-07T05:58:53;30.07;;;26.90;;
21215;SDS011;10765;50.954;5.322;2022-12-07T06:01:39;31.97;;;28.10;;
21215;SDS011;10765;50.954;5.322;2022-12-07T06:04:06;34.00;;;30.30;;
21215;SDS011;10765;50.954;5.322;2022-12-07T06:06:33;34.73;;;31.20;;
21215;SDS011;10765;50.954;5.322;2022-12-07T06:09:00;32.40;;;29.03;;
21215;SDS011;10765;50.954;5.322;2022-12-07T06:11:28;31.10;;;27.93;;
21215;SDS011;10765;50.954;5.322;2022-12-07T06:14:12;31.43;;;28.17;;
21215;SDS011;10765;50.954;5.322;2022-12-07T06:16:41;32.43;;;28.93;;
21215;SDS011;10765;50.954;5.322;2022-12-07T06:19:08;39.37;;;34.33;;
21215;SDS011;10765;50.954;5.322;2022-12-07T06:21:35;39.57;;;33.90;;
21215;SDS011;10765;50.954;5.322;2022-12-07T06:24:02;38.17;;;33.73;;
21215;SDS011;10765;50.954;5.322;2022-12-07T06:26:30;42.87;;;34.87;;
21215;SDS011;10765;50.954;5.322;2022-12-07T06:28:57;41.67;;;34.20;;
21215;SDS011;10765;50.954;5.322;2022-12-07T06:31:24;36.60;;;31.83;;
21215;SDS011;10765;50.954;5.322;2022-12-07T06:33:56;34.90;;;30.63;;
21215;SDS011;10765;50.954;5.322;2022-12-07T06:36:23;35.73;;;31.47;;
21215;SDS011;10765;50.954;5.322;2022-12-07T06:38:50;37.13;;;33.23;;
21215;SDS011;10765;50.954;5.322;2022-12-07T06:41:18;34.63;;;31.13;;
21215;SDS011;10765;50.954;5.322;2022-12-07T06:43:45;34.70;;;30.90;;
21215;SDS011;10765;50.954;5.322;2022-12-07T06:46:11;36.53;;;32.73;;
21215;SDS011;10765;50.954;5.322;2022-12-07T06:48:39;35.90;;;32.17;;
21215;SDS011;10765;50.954;5.322;2022-12-07T06:51:07;43.70;;;35.50;;
21215;SDS011;10765;50.954;5.322;2022-12-07T06:53:34;34.33;;;30.67;;
21215;SDS011;10765;50.954;5.322;2022-12-07T06:56:02;39.93;;;34.23;;
21215;SDS011;10765;50.954;5.322;2022-12-07T06:58:29;34.13;;;30.43;;
21215;SDS011;10765;50.954;5.322;2022-12-07T07:00:56;36.90;;;32.83;;
21215;SDS011;10765;50.954;5.322;2022-12-07T07:03:23;35.33;;;31.60;;
21215;SDS011;10765;50.954;5.322;2022-12-07T07:05:50;37.23;;;31.07;;
21215;SDS011;10765;50.954;5.322;2022-12-07T07:08:18;41.07;;;34.73;;
21215;SDS011;10765;50.954;5.322;2022-12-07T07:10:45;36.17;;;32.30;;
21215;SDS011;10765;50.954;5.322;2022-12-07T07:13:12;33.03;;;29.63;;
21215;SDS011;10765;50.954;5.322;2022-12-07T07:15:39;37.33;;;32.30;;
21215;SDS011;10765;50.954;5.322;2022-12-07T07:18:06;34.33;;;30.63;;
21215;SDS011;10765;50.954;5.322;2022-12-07T07:20:33;35.00;;;29.50;;
21215;SDS011;10765;50.954;5.322;2022-12-07T07:23:00;32.13;;;28.80;;
21215;SDS011;10765;50.954;5.322;2022-12-07T07:25:28;32.57;;;29.07;;
21215;SDS011;10765;50.954;5.322;2022-12-07T07:27:55;32.60;;;28.97;;
21215;SDS011;10765;50.954;5.322;2022-12-07T07:30:22;28.13;;;25.17;;
21215;SDS011;10765;50.954;5.322;2022-12-07T07:32:49;28.23;;;25.23;;
21215;SDS011;10765;50.954;5.322;2022-12-07T07:35:16;26.97;;;24.17;;
21215;SDS011;10765;50.954;5.322;2022-12-07T07:37:43;31.37;;;26.50;;
21215;SDS011;10765;50.954;5.322;2022-12-07T07:40:10;25.93;;;23.43;;
21215;SDS011;10765;50.954;5.322;2022-12-07T07:42:38;29.03;;;24.47;;
21215;SDS011;10765;50.954;5.322;2022-12-07T07:45:06;24.87;;;22.27;;
21215;SDS011;10765;50.954;5.322;2022-12-07T07:47:33;23.43;;;21.03;;
21215;SDS011;10765;50.954;5.322;2022-12-07T07:50:00;23.57;;;21.23;;
21215;SDS011;10765;50.954;5.322;2022-12-07T07:52:27;21.30;;;19.03;;
21215;SDS011;10765;50.954;5.322;2022-12-07T07:54:54;24.87;;;21.77;;
21215;SDS011;10765;50.954;5.322;2022-12-07T07:57:21;22.50;;;20.13;;
21215;SDS011;10765;50.954;5.322;2022-12-07T07:59:49;24.93;;;19.73;;
21215;SDS011;10765;50.954;5.322;2022-12-07T08:02:17;20.47;;;18.43;;
21215;SDS011;10765;50.954;5.322;2022-12-07T08:04:46;21.70;;;19.50;;
21215;SDS011;10765;50.954;5.322;2022-12-07T08:07:13;24.50;;;22.00;;
21215;SDS011;10765;50.954;5.322;2022-12-07T08:09:41;27.47;;;24.77;;
21215;SDS011;10765;50.954;5.322;2022-12-07T08:12:08;29.07;;;25.93;;
21215;SDS011;10765;50.954;5.322;2022-12-07T08:14:35;32.63;;;29.23;;
21215;SDS011;10765;50.954;5.322;2022-12-07T08:17:03;34.53;;;30.47;;
21215;SDS011;10765;50.954;5.322;2022-12-07T08:19:30;36.43;;;32.70;;
21215;SDS011;10765;50.954;5.322;2022-12-07T08:21:58;35.30;;;31.67;;
21215;SDS011;10765;50.954;5.322;2022-12-07T08:24:25;37.43;;;33.30;;
21215;SDS011;10765;50.954;5.322;2022-12-07T08:26:52;30.60;;;27.50;;
21215;SDS011;10765;50.954;5.322;2022-12-07T08:29:19;29.20;;;26.20;;
21215;SDS011;10765;50.954;5.322;2022-12-07T08:31:45;30.80;;;27.70;;
21215;SDS011;10765;50.954;5.322;2022-12-07T08:34:14;30.93;;;27.80;;
21215;SDS011;10765;50.954;5.322;2022-12-07T08:36:41;24.50;;;22.17;;
21215;SDS011;10765;50.954;5.322;2022-12-07T08:39:08;24.23;;;21.70;;
21215;SDS011;10765;50.954;5.322;2022-12-07T08:41:35;23.40;;;20.10;;
21215;SDS011;10765;50.954;5.322;2022-12-07T08:44:02;19.70;;;17.70;;
21215;SDS011;10765;50.954;5.322;2022-12-07T08:46:30;21.27;;;17.33;;
21215;SDS011;10765;50.954;5.322;2022-12-07T08:49:03;16.53;;;14.77;;
21215;SDS011;10765;50.954;5.322;2022-12-07T08:51:35;14.80;;;13.23;;
21215;SDS011;10765;50.954;5.322;2022-12-07T08:54:03;12.53;;;11.30;;
21215;SDS011;10765;50.954;5.322;2022-12-07T08:56:33;13.43;;;12.13;;
21215;SDS011;10765;50.954;5.322;2022-12-07T08:59:01;13.83;;;12.37;;
21215;SDS011;10765;50.954;5.322;2022-12-07T09:01:28;13.27;;;11.93;;
21215;SDS011;10765;50.954;5.322;2022-12-07T09:03:55;13.30;;;11.90;;
21215;SDS011;10765;50.954;5.322;2022-12-07T09:06:22;13.00;;;11.70;;
21215;SDS011;10765;50.954;5.322;2022-12-07T09:08:51;14.13;;;12.67;;
21215;SDS011;10765;50.954;5.322;2022-12-07T09:11:21;13.70;;;11.80;;
21215;SDS011;10765;50.954;5.322;2022-12-07T09:13:48;12.47;;;11.27;;
21215;SDS011;10765;50.954;5.322;2022-12-07T09:16:15;14.10;;;11.77;;
21215;SDS011;10765;50.954;5.322;2022-12-07T09:18:42;13.07;;;11.70;;
21215;SDS011;10765;50.954;5.322;2022-12-07T09:21:09;13.93;;;12.07;;
21215;SDS011;10765;50.954;5.322;2022-12-07T09:23:36;12.40;;;11.13;;
21215;SDS011;10765;50.954;5.322;2022-12-07T09:26:04;11.83;;;10.07;;
21215;SDS011;10765;50.954;5.322;2022-12-07T09:28:31;14.77;;;9.80;;
21215;SDS011;10765;50.954;5.322;2022-12-07T09:30:58;12.00;;;10.80;;
21215;SDS011;10765;50.954;5.322;2022-12-07T09:33:25;14.03;;;11.27;;
21215;SDS011;10765;50.954;5.322;2022-12-07T09:35:52;15.03;;;9.90;;
21215;SDS011;10765;50.954;5.322;2022-12-07T09:38:19;11.53;;;10.33;;
21215;SDS011;10765;50.954;5.322;2022-12-07T09:40:47;11.50;;;10.17;;
21215;SDS011;10765;50.954;5.322;2022-12-07T09:43:17;11.30;;;9.30;;
21215;SDS011;10765;50.954;5.322;2022-12-07T09:45:47;13.07;;;9.83;;
21215;SDS011;10765;50.954;5.322;2022-12-07T09:48:16;10.03;;;9.03;;
21215;SDS011;10765;50.954;5.322;2022-12-07T09:50:45;12.63;;;9.30;;
21215;SDS011;10765;50.954;5.322;2022-12-07T09:53:15;11.63;;;8.57;;
21215;SDS011;10765;50.954;5.322;2022-12-07T09:55:46;9.80;;;8.80;;
21215;SDS011;10765;50.954;5.322;2022-12-07T09:58:17;11.83;;;8.80;;
21215;SDS011;10765;50.954;5.322;2022-12-07T10:00:48;12.33;;;11.10;;
21215;SDS011;10765;50.954;5.322;2022-12-07T10:03:15;13.03;;;10.87;;
21215;SDS011;10765;50.954;5.322;2022-12-07T10:05:43;41.50;;;38.10;;
21215;SDS011;10765;50.954;5.322;2022-12-07T10:08:13;10.87;;;8.77;;
21215;SDS011;10765;50.954;5.322;2022-12-07T10:10:42;11.60;;;9.47;;
21215;SDS011;10765;50.954;5.322;2022-12-07T10:13:10;11.00;;;8.27;;
21215;SDS011;10765;50.954;5.322;2022-12-07T10:15:44;11.63;;;8.13;;
21215;SDS011;10765;50.954;5.322;2022-12-07T10:18:26;9.60;;;6.53;;
21215;SDS011;10765;50.954;5.322;2022-12-07T10:21:04;10.43;;;6.47;;
21215;SDS011;10765;50.954;5.322;2022-12-07T10:23:36;9.50;;;8.37;;
21215;SDS011;10765;50.954;5.322;2022-12-07T10:26:21;8.53;;;6.53;;
21215;SDS011;10765;50.954;5.322;2022-12-07T10:28:54;10.23;;;8.10;;
21215;SDS011;10765;50.954;5.322;2022-12-07T10:31:23;8.17;;;7.13;;
21215;SDS011;10765;50.954;5.322;2022-12-07T10:33:51;7.53;;;6.40;;
21215;SDS011;10765;50.954;5.322;2022-12-07T10:36:21;10.23;;;6.67;;
21215;SDS011;10765;50.954;5.322;2022-12-07T10:38:50;11.93;;;7.47;;
21215;SDS011;10765;50.954;5.322;2022-12-07T10:41:18;9.93;;;6.30;;
21215;SDS011;10765;50.954;5.322;2022-12-07T10:43:46;9.20;;;7.13;;
21215;SDS011;10765;50.954;5.322;2022-12-07T10:49:31;10.73;;;6.60;;
21215;SDS011;10765;50.954;5.322;2022-12-07T10:52:27;9.53;;;6.73;;
21215;SDS011;10765;50.954;5.322;2022-12-07T10:55:08;9.30;;;6.60;;
21215;SDS011;10765;50.954;5.322;2022-12-07T10:57:47;10.43;;;6.97;;
21215;SDS011;10765;50.954;5.322;2022-12-07T11:00:36;8.90;;;7.03;;
21215;SDS011;10765;50.954;5.322;2022-12-07T11:03:21;7.57;;;6.63;;
21215;SDS011;10765;50.954;5.322;2022-12-07T11:05:59;8.40;;;6.10;;
21215;SDS011;10765;50.954;5.322;2022-12-07T11:08:39;11.87;;;7.57;;
21215;SDS011;10765;50.954;5.322;2022-12-07T11:11:19;9.33;;;6.63;;
21215;SDS011;10765;50.954;5.322;2022-12-07T11:13:52;9.73;;;6.67;;
21215;SDS011;10765;50.954;5.322;2022-12-07T11:16:29;9.23;;;6.43;;
21215;SDS011;10765;50.954;5.322;2022-12-07T11:19:20;11.43;;;8.50;;
21215;SDS011;10765;50.954;5.322;2022-12-07T11:21:57;13.73;;;7.97;;
21215;SDS011;10765;50.954;5.322;2022-12-07T11:24:26;14.47;;;9.17;;
21215;SDS011;10765;50.954;5.322;2022-12-07T11:27:07;13.30;;;8.53;;
21215;SDS011;10765;50.954;5.322;2022-12-07T11:29:48;10.07;;;7.90;;
21215;SDS011;10765;50.954;5.322;2022-12-07T11:32:31;8.70;;;6.07;;
21215;SDS011;10765;50.954;5.322;2022-12-07T11:35:18;8.63;;;6.60;;
21215;SDS011;10765;50.954;5.322;2022-12-07T11:37:51;11.20;;;6.67;;
21215;SDS011;10765;50.954;5.322;2022-12-07T11:40:24;8.60;;;5.80;;
21215;SDS011;10765;50.954;5.322;2022-12-07T11:42:56;6.77;;;5.37;;
21215;SDS011;10765;50.954;5.322;2022-12-07T11:45:27;9.47;;;5.63;;
21215;SDS011;10765;50.954;5.322;2022-12-07T11:47:58;8.00;;;5.20;;
21215;SDS011;10765;50.954;5.322;2022-12-07T11:50:30;6.67;;;4.53;;
21215;SDS011;10765;50.954;5.322;2022-12-07T11:53:01;6.53;;;4.80;;
21215;SDS011;10765;50.954;5.322;2022-12-07T11:55:37;7.20;;;4.70;;
21215;SDS011;10765;50.954;5.322;2022-12-07T11:58:13;7.70;;;5.03;;
21215;SDS011;10765;50.954;5.322;2022-12-07T12:01:01;9.47;;;4.70;;
21215;SDS011;10765;50.954;5.322;2022-12-07T12:03:40;6.43;;;4.40;;
21215;SDS011;10765;50.954;5.322;2022-12-07T12:06:13;9.27;;;5.30;;
21215;SDS011;10765;50.954;5.322;2022-12-07T12:08:41;8.33;;;4.93;;
21215;SDS011;10765;50.954;5.322;2022-12-07T12:11:17;7.17;;;4.83;;
21215;SDS011;10765;50.954;5.322;2022-12-07T12:14:01;8.90;;;5.00;;
21215;SDS011;10765;50.954;5.322;2022-12-07T12:19:40;7.53;;;5.73;;
21215;SDS011;10765;50.954;5.322;2022-12-07T12:22:14;9.57;;;5.37;;
21215;SDS011;10765;50.954;5.322;2022-12-07T12:24:43;9.33;;;5.80;;
21215;SDS011;10765;50.954;5.322;2022-12-07T12:27:24;11.13;;;5.57;;
21215;SDS011;10765;50.954;5.322;2022-12-07T12:29:53;7.40;;;4.97;;
21215;SDS011;10765;50.954;5.322;2022-12-07T12:32:22;7.40;;;4.93;;
21215;SDS011;10765;50.954;5.322;2022-12-07T12:35:03;5.73;;;4.70;;
21215;SDS011;10765;50.954;5.322;2022-12-07T12:37:51;6.37;;;4.93;;
21215;SDS011;10765;50.954;5.322;2022-12-07T12:49:32;7.83;;;3.87;;
21215;SDS011;10765;50.954;5.322;2022-12-07T12:52:01;8.00;;;3.50;;
21215;SDS011;10765;50.954;5.322;2022-12-07T12:55:14;6.47;;;3.50;;
21215;SDS011;10765;50.954;5.322;2022-12-07T12:57:46;6.57;;;3.23;;
21215;SDS011;10765;50.954;5.322;2022-12-07T13:00:17;6.43;;;3.53;;
21215;SDS011;10765;50.954;5.322;2022-12-07T13:02:47;6.17;;;3.33;;
21215;SDS011;10765;50.954;5.322;2022-12-07T13:05:17;6.87;;;3.43;;
21215;SDS011;10765;50.954;5.322;2022-12-07T13:07:59;4.37;;;2.90;;
21215;SDS011;10765;50.954;5.322;2022-12-07T13:13:32;4.37;;;3.20;;
21215;SDS011;10765;50.954;5.322;2022-12-07T13:25:21;6.53;;;3.30;;
21215;SDS011;10765;50.954;5.322;2022-12-07T13:28:07;7.40;;;3.20;;
21215;SDS011;10765;50.954;5.322;2022-12-07T13:30:42;7.13;;;3.20;;
21215;SDS011;10765;50.954;5.322;2022-12-07T13:33:13;6.20;;;3.07;;
21215;SDS011;10765;50.954;5.322;2022-12-07T13:35:43;4.50;;;2.87;;
21215;SDS011;10765;50.954;5.322;2022-12-07T13:38:19;6.23;;;3.30;;
21215;SDS011;10765;50.954;5.322;2022-12-07T13:41:01;5.07;;;2.87;;
21215;SDS011;10765;50.954;5.322;2022-12-07T13:43:41;4.73;;;2.57;;
21215;SDS011;10765;50.954;5.322;2022-12-07T13:46:10;8.43;;;3.30;;
21215;SDS011;10765;50.954;5.322;2022-12-07T13:48:43;4.57;;;2.83;;
21215;SDS011;10765;50.954;5.322;2022-12-07T13:51:16;5.77;;;2.67;;
21215;SDS011;10765;50.954;5.322;2022-12-07T13:53:48;7.90;;;2.90;;
21215;SDS011;10765;50.954;5.322;2022-12-07T13:56:15;6.03;;;2.50;;
21215;SDS011;10765;50.954;5.322;2022-12-07T13:58:44;2.83;;;1.90;;
21215;SDS011;10765;50.954;5.322;2022-12-07T14:01:11;3.63;;;2.13;;
21215;SDS011;10765;50.954;5.322;2022-12-07T14:03:38;4.63;;;2.40;;
21215;SDS011;10765;50.954;5.322;2022-12-07T14:06:25;7.20;;;2.77;;
21215;SDS011;10765;50.954;5.322;2022-12-07T14:09:14;5.23;;;3.00;;
21215;SDS011;10765;50.954;5.322;2022-12-07T14:11:44;7.90;;;3.30;;
21215;SDS011;10765;50.954;5.322;2022-12-07T14:14:15;8.83;;;3.60;;
21215;SDS011;10765;50.954;5.322;2022-12-07T14:16:54;6.90;;;3.60;;
21215;SDS011;10765;50.954;5.322;2022-12-07T14:19:39;7.30;;;4.30;;
21215;SDS011;10765;50.954;5.322;2022-12-07T14:22:17;6.87;;;4.00;;
21215;SDS011;10765;50.954;5.322;2022-12-07T14:24:48;5.83;;;4.83;;
21215;SDS011;10765;50.954;5.322;2022-12-07T14:27:16;10.50;;;5.47;;
21215;SDS011;10765;50.954;5.322;2022-12-07T14:29:46;7.40;;;5.70;;
21215;SDS011;10765;50.954;5.322;2022-12-07T14:32:20;6.87;;;5.27;;
21215;SDS011;10765;50.954;5.322;2022-12-07T14:34:56;8.90;;;5.83;;
21215;SDS011;10765;50.954;5.322;2022-12-07T14:37:26;8.40;;;5.63;;
21215;SDS011;10765;50.954;5.322;2022-12-07T14:39:53;12.60;;;6.47;;
21215;SDS011;10765;50.954;5.322;2022-12-07T14:42:21;8.90;;;5.87;;
21215;SDS011;10765;50.954;5.322;2022-12-07T14:44:52;9.53;;;6.60;;
21215;SDS011;10765;50.954;5.322;2022-12-07T14:47:19;8.17;;;6.63;;
21215;SDS011;10765;50.954;5.322;2022-12-07T14:49:46;8.17;;;6.23;;
21215;SDS011;10765;50.954;5.322;2022-12-07T14:52:14;8.10;;;6.57;;
21215;SDS011;10765;50.954;5.322;2022-12-07T14:54:43;8.60;;;6.77;;
21215;SDS011;10765;50.954;5.322;2022-12-07T14:57:10;10.20;;;7.53;;
21215;SDS011;10765;50.954;5.322;2022-12-07T14:59:37;7.70;;;6.63;;
21215;SDS011;10765;50.954;5.322;2022-12-07T15:02:06;8.67;;;7.00;;
21215;SDS011;10765;50.954;5.322;2022-12-07T15:04:36;10.93;;;7.37;;
21215;SDS011;10765;50.954;5.322;2022-12-07T15:07:04;13.60;;;9.93;;
21215;SDS011;10765;50.954;5.322;2022-12-07T15:09:32;11.30;;;8.70;;
21215;SDS011;10765;50.954;5.322;2022-12-07T15:11:59;9.37;;;7.27;;
21215;SDS011;10765;50.954;5.322;2022-12-07T15:14:26;11.53;;;7.90;;
21215;SDS011;10765;50.954;5.322;2022-12-07T15:16:53;9.83;;;7.27;;
21215;SDS011;10765;50.954;5.322;2022-12-07T15:19:22;11.43;;;7.70;;
21215;SDS011;10765;50.954;5.322;2022-12-07T15:21:51;11.53;;;7.17;;